createdAt,value
2017-04-02T00:01:08.656Z,13.91
2017-04-02T00:02:21.184Z,13.83
2017-04-02T00:03:33.483Z,13.8
2017-04-02T00:04:45.732Z,13.78
2017-04-02T00:05:57.994Z,13.87
2017-04-02T00:07:10.542Z,13.8
2017-04-02T00:08:23.085Z,13.73
2017-04-02T00:09:35.623Z,13.73
2017-04-02T00:10:48.153Z,13.75
2017-04-02T00:11:59.794Z,13.75
2017-04-02T00:13:12.336Z,13.68
2017-04-02T00:14:24.546Z,13.62
2017-04-02T00:15:37.081Z,13.78
2017-04-02T00:16:49.625Z,13.65
2017-04-02T00:18:01.828Z,13.58
2017-04-02T00:19:14.373Z,13.68
2017-04-02T00:20:26.887Z,13.58
2017-04-02T00:21:39.417Z,13.57
2017-04-02T00:22:52.185Z,13.6
2017-04-02T00:24:04.386Z,13.55
2017-04-02T00:25:16.945Z,13.55
2017-04-02T00:26:29.478Z,13.52
2017-04-02T00:27:42.023Z,13.49
2017-04-02T00:28:54.562Z,13.43
2017-04-02T00:30:07.091Z,13.43
2017-04-02T00:31:19.660Z,13.46
2017-04-02T00:32:32.230Z,13.42
2017-04-02T00:33:44.741Z,13.36
2017-04-02T00:34:57.026Z,13.31
2017-04-02T00:36:09.259Z,13.28
2017-04-02T00:37:21.804Z,13.2
2017-04-02T00:38:34.332Z,13.26
2017-04-02T00:39:46.547Z,13.28
2017-04-02T00:40:58.467Z,13.28
2017-04-02T00:42:10.712Z,13.26
2017-04-02T00:43:22.922Z,13.17
2017-04-02T00:44:35.455Z,13.13
2017-04-02T00:45:47.683Z,13.13
2017-04-02T00:46:59.626Z,13.13
2017-04-02T00:48:12.171Z,13.11
2017-04-02T00:49:24.430Z,13.13
2017-04-02T00:50:36.687Z,12.98
2017-04-02T00:51:48.931Z,13.11
2017-04-02T00:53:00.881Z,13.02
2017-04-02T00:54:13.096Z,12.99
2017-04-02T00:55:25.895Z,12.93
2017-04-02T00:56:38.450Z,12.94
2017-04-02T00:57:51.012Z,12.93
2017-04-02T00:59:03.256Z,12.93
2017-04-02T01:00:15.796Z,12.91
2017-04-02T01:01:28.355Z,12.87
2017-04-02T01:02:40.876Z,12.86
2017-04-02T01:03:53.397Z,12.83
2017-04-02T01:05:05.921Z,12.8
2017-04-02T01:06:18.457Z,12.73
2017-04-02T01:07:31.013Z,12.81
2017-04-02T01:08:43.257Z,12.72
2017-04-02T01:09:55.776Z,12.78
2017-04-02T01:11:08.027Z,12.81
2017-04-02T01:12:20.248Z,12.75
2017-04-02T01:13:32.467Z,12.81
2017-04-02T01:14:45.015Z,12.83
2017-04-02T01:15:57.548Z,12.78
2017-04-02T01:17:10.072Z,12.76
2017-04-02T01:18:22.344Z,12.66
2017-04-02T01:19:34.893Z,12.68
2017-04-02T01:20:47.119Z,12.68
2017-04-02T01:21:59.653Z,12.7
2017-04-02T01:23:11.903Z,12.65
2017-04-02T01:24:24.158Z,12.68
2017-04-02T01:25:36.652Z,12.63
2017-04-02T01:26:49.244Z,12.53
2017-04-02T01:28:01.483Z,12.62
2017-04-02T01:29:14.017Z,12.58
2017-04-02T01:30:26.550Z,12.58
2017-04-02T01:31:38.498Z,12.53
2017-04-02T01:32:50.749Z,12.53
2017-04-02T01:34:03.295Z,12.53
2017-04-02T01:35:15.837Z,12.57
2017-04-02T01:36:28.380Z,12.57
2017-04-02T01:37:40.580Z,12.53
2017-04-02T01:38:52.825Z,12.58
2017-04-02T01:40:05.328Z,12.54
2017-04-02T01:41:17.563Z,12.43
2017-04-02T01:42:30.091Z,12.44
2017-04-02T01:43:42.597Z,12.45
2017-04-02T01:44:55.390Z,12.47
2017-04-02T01:46:07.629Z,12.44
2017-04-02T01:47:20.176Z,12.37
2017-04-02T01:48:32.122Z,12.35
2017-04-02T01:49:44.642Z,12.36
2017-04-02T01:50:57.180Z,12.28
2017-04-02T01:52:09.709Z,12.3
2017-04-02T01:53:22.232Z,12.28
2017-04-02T01:54:34.743Z,12.28
2017-04-02T01:55:47.274Z,12.25
2017-04-02T01:56:59.796Z,12.25
2017-04-02T01:58:12.068Z,12.15
2017-04-02T01:59:24.612Z,12.12
2017-04-02T02:00:36.851Z,12.2
2017-04-02T02:01:49.381Z,12.14
2017-04-02T02:03:01.925Z,12.03
2017-04-02T02:04:14.467Z,12.07
2017-04-02T02:05:26.992Z,12.02
2017-04-02T02:06:39.564Z,11.97
2017-04-02T02:07:52.133Z,11.86
2017-04-02T02:09:04.397Z,11.93
2017-04-02T02:10:16.953Z,11.88
2017-04-02T02:11:29.521Z,11.86
2017-04-02T02:12:42.059Z,11.86
2017-04-02T02:13:54.580Z,11.8
2017-04-02T02:15:06.810Z,11.77
2017-04-02T02:16:19.369Z,11.73
2017-04-02T02:17:31.848Z,11.76
2017-04-02T02:18:44.390Z,11.71
2017-04-02T02:19:56.893Z,11.74
2017-04-02T02:21:09.440Z,11.59
2017-04-02T02:22:21.974Z,11.55
2017-04-02T02:23:34.511Z,11.58
2017-04-02T02:24:47.052Z,11.55
2017-04-02T02:25:59.289Z,11.44
2017-04-02T02:27:11.818Z,11.45
2017-04-02T02:28:24.061Z,11.43
2017-04-02T02:29:36.602Z,11.31
2017-04-02T02:30:49.155Z,11.31
2017-04-02T02:32:01.703Z,11.26
2017-04-02T02:33:13.939Z,11.2
2017-04-02T02:34:26.185Z,11.19
2017-04-02T02:35:38.112Z,11.16
2017-04-02T02:36:50.662Z,11.16
2017-04-02T02:38:02.885Z,11.05
2017-04-02T02:39:15.149Z,10.92
2017-04-02T02:40:27.690Z,10.92
2017-04-02T02:41:39.616Z,10.97
2017-04-02T02:42:52.162Z,10.89
2017-04-02T02:44:05.000Z,10.86
2017-04-02T02:45:16.933Z,10.84
2017-04-02T02:46:29.467Z,10.8
2017-04-02T02:47:41.975Z,10.68
2017-04-02T02:48:54.519Z,10.77
2017-04-02T02:50:07.033Z,10.67
2017-04-02T02:51:19.554Z,10.72
2017-04-02T02:52:32.097Z,10.64
2017-04-02T02:53:44.303Z,10.69
2017-04-02T02:54:56.867Z,10.58
2017-04-02T02:56:09.414Z,10.59
2017-04-02T02:57:21.941Z,10.53
2017-04-02T02:58:34.480Z,10.57
2017-04-02T02:59:47.025Z,10.57
2017-04-02T03:00:59.550Z,10.45
2017-04-02T03:02:12.089Z,10.43
2017-04-02T03:03:24.617Z,10.36
2017-04-02T03:04:37.163Z,10.39
2017-04-02T03:05:49.703Z,10.31
2017-04-02T03:07:02.263Z,10.38
2017-04-02T03:08:14.775Z,10.3
2017-04-02T03:09:27.325Z,10.3
2017-04-02T03:10:39.535Z,10.27
2017-04-02T03:11:52.069Z,10.28
2017-04-02T03:13:04.605Z,10.31
2017-04-02T03:14:17.130Z,10.21
2017-04-02T03:15:29.344Z,10.21
2017-04-02T03:16:41.898Z,10.18
2017-04-02T03:17:54.418Z,10.12
2017-04-02T03:19:06.931Z,10.23
2017-04-02T03:20:19.156Z,10.15
2017-04-02T03:21:31.357Z,10.09
2017-04-02T03:22:43.873Z,10.17
2017-04-02T03:23:56.390Z,10.12
2017-04-02T03:25:08.323Z,10.05
2017-04-02T03:26:20.564Z,10.1
2017-04-02T03:27:33.086Z,10.17
2017-04-02T03:28:45.282Z,10.18
2017-04-02T03:29:57.803Z,10.15
2017-04-02T03:31:10.328Z,10.13
2017-04-02T03:32:22.562Z,10.09
2017-04-02T03:33:35.083Z,10.13
2017-04-02T03:34:47.314Z,10.1
2017-04-02T03:35:59.853Z,10.1
2017-04-02T03:37:12.380Z,10.12
2017-04-02T03:38:24.878Z,10.12
2017-04-02T03:39:37.397Z,10.09
2017-04-02T03:40:49.619Z,9.99
2017-04-02T03:42:01.829Z,10.1
2017-04-02T03:43:14.049Z,10.03
2017-04-02T03:44:26.579Z,10.03
2017-04-02T03:45:38.805Z,9.99
2017-04-02T03:46:51.337Z,9.99
2017-04-02T03:48:03.886Z,9.97
2017-04-02T03:49:16.111Z,10.02
2017-04-02T03:50:28.350Z,10.03
2017-04-02T03:51:40.898Z,9.97
2017-04-02T03:52:53.445Z,9.94
2017-04-02T03:54:05.645Z,9.97
2017-04-02T03:55:18.191Z,9.91
2017-04-02T03:56:30.730Z,9.91
2017-04-02T03:57:43.276Z,9.91
2017-04-02T03:58:55.499Z,9.94
2017-04-02T04:00:07.750Z,9.92
2017-04-02T04:01:19.667Z,9.91
2017-04-02T04:02:32.217Z,9.87
2017-04-02T04:03:44.758Z,9.91
2017-04-02T04:04:57.314Z,9.84
2017-04-02T04:06:09.533Z,9.82
2017-04-02T04:07:22.071Z,9.81
2017-04-02T04:08:34.597Z,9.82
2017-04-02T04:09:47.120Z,9.82
2017-04-02T04:10:59.667Z,9.77
2017-04-02T04:12:12.238Z,9.74
2017-04-02T04:13:24.805Z,9.77
2017-04-02T04:14:37.047Z,9.73
2017-04-02T04:15:49.589Z,9.69
2017-04-02T04:17:02.138Z,9.74
2017-04-02T04:18:14.684Z,9.7
2017-04-02T04:19:27.256Z,9.76
2017-04-02T04:20:39.809Z,9.67
2017-04-02T04:21:52.605Z,9.56
2017-04-02T04:23:05.152Z,9.66
2017-04-02T04:24:17.687Z,9.62
2017-04-02T04:25:30.243Z,9.59
2017-04-02T04:26:42.788Z,9.56
2017-04-02T04:27:55.332Z,9.54
2017-04-02T04:29:07.577Z,9.48
2017-04-02T04:30:19.826Z,9.48
2017-04-02T04:31:32.089Z,9.44
2017-04-02T04:32:44.614Z,9.47
2017-04-02T04:33:56.853Z,9.51
2017-04-02T04:35:09.373Z,9.48
2017-04-02T04:36:21.911Z,9.48
2017-04-02T04:37:34.451Z,9.42
2017-04-02T04:38:46.963Z,9.51
2017-04-02T04:39:59.190Z,9.49
2017-04-02T04:41:11.753Z,9.49
2017-04-02T04:42:23.985Z,9.47
2017-04-02T04:43:36.773Z,9.44
2017-04-02T04:44:49.002Z,9.4
2017-04-02T04:46:01.561Z,9.34
2017-04-02T04:47:14.089Z,9.3
2017-04-02T04:48:26.040Z,9.36
2017-04-02T04:49:38.604Z,9.33
2017-04-02T04:50:51.158Z,9.44
2017-04-02T04:52:03.716Z,9.37
2017-04-02T04:53:15.926Z,9.36
2017-04-02T04:54:28.423Z,9.37
2017-04-02T04:55:40.966Z,9.42
2017-04-02T04:56:53.503Z,9.37
2017-04-02T04:58:06.021Z,9.31
2017-04-02T04:59:18.555Z,9.3
2017-04-02T05:00:30.787Z,9.33
2017-04-02T05:01:43.297Z,9.29
2017-04-02T05:02:55.840Z,9.24
2017-04-02T05:04:08.417Z,9.3
2017-04-02T05:05:20.950Z,9.29
2017-04-02T05:06:32.893Z,9.26
2017-04-02T05:07:45.424Z,9.27
2017-04-02T05:08:57.962Z,9.27
2017-04-02T05:10:10.183Z,9.29
2017-04-02T05:11:22.409Z,9.31
2017-04-02T05:12:34.939Z,9.27
2017-04-02T05:13:47.520Z,9.29
2017-04-02T05:14:59.739Z,9.33
2017-04-02T05:16:12.295Z,9.33
2017-04-02T05:17:24.842Z,9.27
2017-04-02T05:18:37.386Z,9.36
2017-04-02T05:19:49.900Z,9.34
2017-04-02T05:21:02.419Z,9.31
2017-04-02T05:22:14.990Z,9.31
2017-04-02T05:23:27.493Z,9.29
2017-04-02T05:24:40.031Z,9.48
2017-04-02T05:25:52.604Z,9.48
2017-04-02T05:27:05.109Z,9.48
2017-04-02T05:28:17.672Z,9.48
2017-04-02T05:29:29.892Z,9.49
2017-04-02T05:30:42.421Z,9.48
2017-04-02T05:31:54.914Z,9.54
2017-04-02T05:33:07.430Z,9.59
2017-04-02T05:34:19.974Z,9.56
2017-04-02T05:35:32.194Z,9.64
2017-04-02T05:36:44.740Z,9.72
2017-04-02T05:37:56.943Z,9.72
2017-04-02T05:39:09.485Z,9.7
2017-04-02T05:40:22.011Z,9.8
2017-04-02T05:41:34.259Z,9.74
2017-04-02T05:42:46.795Z,9.74
2017-04-02T05:43:59.004Z,9.88
2017-04-02T05:45:11.572Z,9.88
2017-04-02T05:46:24.115Z,9.9
2017-04-02T05:47:36.628Z,9.87
2017-04-02T05:48:48.524Z,9.97
2017-04-02T05:50:01.032Z,10
2017-04-02T05:51:13.269Z,9.97
2017-04-02T05:52:25.811Z,9.97
2017-04-02T05:53:38.318Z,10.06
2017-04-02T05:54:50.561Z,10.15
2017-04-02T05:56:03.088Z,10.1
2017-04-02T05:57:15.633Z,10.15
2017-04-02T05:58:28.177Z,10.12
2017-04-02T05:59:40.415Z,10.1
2017-04-02T06:00:52.933Z,10.27
2017-04-02T06:02:05.482Z,10.31
2017-04-02T06:03:18.010Z,10.36
2017-04-02T06:04:30.555Z,10.39
2017-04-02T06:05:43.095Z,10.45
2017-04-02T06:06:55.020Z,10.55
2017-04-02T06:08:07.517Z,10.71
2017-04-02T06:09:19.741Z,10.75
2017-04-02T06:10:32.304Z,10.8
2017-04-02T06:11:44.832Z,10.87
2017-04-02T06:12:57.378Z,10.94
2017-04-02T06:14:09.902Z,11.02
2017-04-02T06:15:22.437Z,11.13
2017-04-02T06:16:35.230Z,11.16
2017-04-02T06:17:47.826Z,11.19
2017-04-02T06:19:00.335Z,11.33
2017-04-02T06:20:12.567Z,11.4
2017-04-02T06:21:25.101Z,11.4
2017-04-02T06:22:37.663Z,11.44
2017-04-02T06:23:49.890Z,11.45
2017-04-02T06:25:02.438Z,11.51
2017-04-02T06:26:14.976Z,11.56
2017-04-02T06:27:27.500Z,11.74
2017-04-02T06:28:39.696Z,11.67
2017-04-02T06:29:51.896Z,11.77
2017-04-02T06:31:04.416Z,11.88
2017-04-02T06:32:16.635Z,11.86
2017-04-02T06:33:29.173Z,12.11
2017-04-02T06:34:41.705Z,12.11
2017-04-02T06:35:53.926Z,12.21
2017-04-02T06:37:06.447Z,12.28
2017-04-02T06:38:18.384Z,12.36
2017-04-02T06:39:30.885Z,12.43
2017-04-02T06:40:43.432Z,12.4
2017-04-02T06:41:55.669Z,12.53
2017-04-02T06:43:08.200Z,12.58
2017-04-02T06:44:20.722Z,12.55
2017-04-02T06:45:32.960Z,12.58
2017-04-02T06:46:45.206Z,12.54
2017-04-02T06:47:57.124Z,12.66
2017-04-02T06:49:09.351Z,12.58
2017-04-02T06:50:21.276Z,12.55
2017-04-02T06:51:33.790Z,12.55
2017-04-02T06:52:46.294Z,12.54
2017-04-02T06:53:58.836Z,12.54
2017-04-02T06:55:11.061Z,12.53
2017-04-02T06:56:23.611Z,12.55
2017-04-02T06:57:36.173Z,12.69
2017-04-02T06:58:48.711Z,12.68
2017-04-02T07:00:01.232Z,12.66
2017-04-02T07:01:13.528Z,12.72
2017-04-02T07:02:25.775Z,12.83
2017-04-02T07:03:38.304Z,12.84
2017-04-02T07:04:51.127Z,12.98
2017-04-02T07:06:03.652Z,12.99
2017-04-02T07:07:15.911Z,13.11
2017-04-02T07:08:28.462Z,13.21
2017-04-02T07:09:40.983Z,13.28
2017-04-02T07:10:53.521Z,13.31
2017-04-02T07:12:05.467Z,13.36
2017-04-02T07:13:17.693Z,13.36
2017-04-02T07:14:29.916Z,13.47
2017-04-02T07:15:42.462Z,13.52
2017-04-02T07:16:54.679Z,13.57
2017-04-02T07:18:06.929Z,13.55
2017-04-02T07:19:19.210Z,13.67
2017-04-02T07:20:31.776Z,13.79
2017-04-02T07:21:44.309Z,13.87
2017-04-02T07:22:56.841Z,14.08
2017-04-02T07:24:09.358Z,14.07
2017-04-02T07:25:21.576Z,14.2
2017-04-02T07:26:34.122Z,14.38
2017-04-02T07:27:46.671Z,14.49
2017-04-02T07:28:59.217Z,14.61
2017-04-02T07:30:11.443Z,14.59
2017-04-02T07:31:23.638Z,14.74
2017-04-02T07:32:36.176Z,14.74
2017-04-02T07:33:48.419Z,14.89
2017-04-02T07:35:00.647Z,14.96
2017-04-02T07:36:13.189Z,14.96
2017-04-02T07:37:25.731Z,14.99
2017-04-02T07:38:37.935Z,15.05
2017-04-02T07:39:50.430Z,15.07
2017-04-02T07:41:02.681Z,15.08
2017-04-02T07:42:15.229Z,15.19
2017-04-02T07:43:27.764Z,15.18
2017-04-02T07:44:40.307Z,15.14
2017-04-02T07:45:52.552Z,15.29
2017-04-02T07:47:05.060Z,15.27
2017-04-02T07:48:17.002Z,15.36
2017-04-02T07:49:29.540Z,15.19
2017-04-02T07:50:42.094Z,15.33
2017-04-02T07:51:54.644Z,15.27
2017-04-02T07:53:07.178Z,15.32
2017-04-02T07:54:19.382Z,15.3
2017-04-02T07:55:31.927Z,15.26
2017-04-02T07:56:44.426Z,15.32
2017-04-02T07:57:56.948Z,15.3
2017-04-02T07:59:09.782Z,15.3
2017-04-02T08:00:22.333Z,15.19
2017-04-02T08:01:34.874Z,15.27
2017-04-02T08:02:47.120Z,15.32
2017-04-02T08:03:59.365Z,15.36
2017-04-02T08:05:11.875Z,15.37
2017-04-02T08:06:24.445Z,15.45
2017-04-02T08:07:36.986Z,15.47
2017-04-02T08:08:49.524Z,15.57
2017-04-02T08:10:02.082Z,15.51
2017-04-02T08:11:14.325Z,15.57
2017-04-02T08:12:26.525Z,15.54
2017-04-02T08:13:39.041Z,15.69
2017-04-02T08:14:51.562Z,15.72
2017-04-02T08:16:03.486Z,15.78
2017-04-02T08:17:16.039Z,15.78
2017-04-02T08:18:28.292Z,15.87
2017-04-02T08:19:40.838Z,15.99
2017-04-02T08:20:53.694Z,16.1
2017-04-02T08:22:06.258Z,16.08
2017-04-02T08:23:18.811Z,16.25
2017-04-02T08:24:31.358Z,16.31
2017-04-02T08:25:43.929Z,16.29
2017-04-02T08:26:56.471Z,16.34
2017-04-02T08:28:09.038Z,16.44
2017-04-02T08:29:21.009Z,16.37
2017-04-02T08:30:33.555Z,16.5
2017-04-02T08:31:46.105Z,16.46
2017-04-02T08:32:58.346Z,16.5
2017-04-02T08:34:10.575Z,16.46
2017-04-02T08:35:23.142Z,16.43
2017-04-02T08:36:35.680Z,16.43
2017-04-02T08:37:48.226Z,16.51
2017-04-02T08:39:00.780Z,16.49
2017-04-02T08:40:13.294Z,16.49
2017-04-02T08:41:25.880Z,16.57
2017-04-02T08:42:38.409Z,16.62
2017-04-02T08:43:50.909Z,16.64
2017-04-02T08:45:03.162Z,16.66
2017-04-02T08:46:15.410Z,16.76
2017-04-02T08:47:27.676Z,16.79
2017-04-02T08:48:40.176Z,16.84
2017-04-02T08:49:52.718Z,16.69
2017-04-02T08:51:05.268Z,16.72
2017-04-02T08:52:17.485Z,16.8
2017-04-02T08:53:30.047Z,16.79
2017-04-02T08:54:42.578Z,16.73
2017-04-02T08:55:55.143Z,16.86
2017-04-02T08:57:07.715Z,16.86
2017-04-02T08:58:20.232Z,16.83
2017-04-02T08:59:32.456Z,16.84
2017-04-02T09:00:44.699Z,16.91
2017-04-02T09:01:57.259Z,16.91
2017-04-02T09:03:09.790Z,17.01
2017-04-02T09:04:22.348Z,17.12
2017-04-02T09:05:34.907Z,17.2
2017-04-02T09:06:47.435Z,17.24
2017-04-02T09:07:59.674Z,17.42
2017-04-02T09:09:11.958Z,17.44
2017-04-02T09:10:24.177Z,17.39
2017-04-02T09:11:36.719Z,17.42
2017-04-02T09:12:49.235Z,17.39
2017-04-02T09:14:01.786Z,17.44
2017-04-02T09:15:14.025Z,17.39
2017-04-02T09:16:26.549Z,17.41
2017-04-02T09:17:39.073Z,17.44
2017-04-02T09:18:51.599Z,17.35
2017-04-02T09:20:03.844Z,17.44
2017-04-02T09:21:16.104Z,17.42
2017-04-02T09:22:28.334Z,17.52
2017-04-02T09:23:40.853Z,17.56
2017-04-02T09:24:53.349Z,17.56
2017-04-02T09:26:06.166Z,17.54
2017-04-02T09:27:18.375Z,17.53
2017-04-02T09:28:30.633Z,17.63
2017-04-02T09:29:43.161Z,17.71
2017-04-02T09:30:55.729Z,17.79
2017-04-02T09:32:07.978Z,17.87
2017-04-02T09:33:20.214Z,17.86
2017-04-02T09:34:31.859Z,17.87
2017-04-02T09:35:44.434Z,17.94
2017-04-02T09:36:56.979Z,17.93
2017-04-02T09:38:09.497Z,18
2017-04-02T09:39:21.430Z,18.16
2017-04-02T09:40:33.048Z,18.15
2017-04-02T09:41:45.292Z,18.11
2017-04-02T09:42:57.806Z,18.13
2017-04-02T09:44:10.077Z,18.12
2017-04-02T09:45:22.609Z,18.18
2017-04-02T09:46:35.144Z,18.15
2017-04-02T09:47:47.693Z,18.33
2017-04-02T09:48:59.913Z,18.26
2017-04-02T09:50:11.869Z,18.26
2017-04-02T09:51:24.447Z,18.26
2017-04-02T09:52:36.673Z,18.3
2017-04-02T09:53:49.243Z,18.3
2017-04-02T09:55:01.792Z,18.31
2017-04-02T09:56:14.035Z,18.28
2017-04-02T09:57:25.968Z,18.3
2017-04-02T09:58:38.788Z,18.33
2017-04-02T09:59:51.027Z,18.41
2017-04-02T10:01:03.557Z,18.42
2017-04-02T10:02:16.123Z,18.52
2017-04-02T10:03:28.686Z,18.55
2017-04-02T10:04:41.224Z,18.6
2017-04-02T10:05:53.761Z,18.71
2017-04-02T10:07:06.010Z,18.66
2017-04-02T10:08:18.256Z,18.66
2017-04-02T10:09:29.906Z,18.78
2017-04-02T10:10:42.149Z,18.68
2017-04-02T10:11:54.685Z,18.66
2017-04-02T10:13:07.232Z,18.64
2017-04-02T10:14:19.777Z,18.68
2017-04-02T10:15:32.295Z,18.68
2017-04-02T10:16:44.806Z,18.67
2017-04-02T10:17:57.048Z,18.71
2017-04-02T10:19:09.620Z,18.66
2017-04-02T10:20:21.882Z,18.73
2017-04-02T10:21:34.111Z,18.83
2017-04-02T10:22:46.353Z,18.83
2017-04-02T10:23:58.893Z,18.78
2017-04-02T10:25:11.145Z,18.81
2017-04-02T10:26:23.416Z,18.66
2017-04-02T10:27:35.637Z,18.58
2017-04-02T10:28:48.190Z,18.43
2017-04-02T10:30:00.472Z,18.45
2017-04-02T10:31:13.021Z,18.37
2017-04-02T10:32:25.575Z,18.24
2017-04-02T10:33:37.513Z,18.27
2017-04-02T10:34:50.105Z,18.34
2017-04-02T10:36:02.658Z,18.31
2017-04-02T10:37:14.897Z,18.26
2017-04-02T10:38:27.150Z,18.27
2017-04-02T10:39:39.688Z,18.31
2017-04-02T10:40:51.935Z,18.39
2017-04-02T10:42:04.443Z,18.39
2017-04-02T10:43:16.680Z,18.45
2017-04-02T10:44:28.930Z,18.51
2017-04-02T10:45:41.455Z,18.63
2017-04-02T10:46:53.701Z,18.64
2017-04-02T10:48:06.246Z,18.73
2017-04-02T10:49:18.507Z,19
2017-04-02T10:50:31.081Z,19.09
2017-04-02T10:51:43.611Z,19.19
2017-04-02T10:52:56.151Z,19.3
2017-04-02T10:54:08.673Z,19.44
2017-04-02T10:55:20.890Z,19.47
2017-04-02T10:56:32.206Z,19.56
2017-04-02T10:57:44.737Z,19.67
2017-04-02T10:58:56.962Z,19.64
2017-04-02T11:00:09.230Z,19.77
2017-04-02T11:01:21.476Z,19.84
2017-04-02T11:02:34.014Z,19.99
2017-04-02T11:03:46.557Z,20.03
2017-04-02T11:04:59.086Z,20.03
2017-04-02T11:06:11.585Z,20.14
2017-04-02T11:07:23.532Z,20.21
2017-04-02T11:08:35.775Z,20.34
2017-04-02T11:09:48.044Z,20.55
2017-04-02T11:11:00.557Z,20.6
2017-04-02T11:12:13.104Z,20.77
2017-04-02T11:13:25.653Z,20.77
2017-04-02T11:14:37.823Z,20.93
2017-04-02T11:15:50.073Z,21.04
2017-04-02T11:17:02.320Z,20.95
2017-04-02T11:18:14.536Z,21.03
2017-04-02T11:19:27.106Z,20.98
2017-04-02T11:20:39.325Z,20.88
2017-04-02T11:21:51.930Z,20.95
2017-04-02T11:23:04.493Z,20.95
2017-04-02T11:24:17.048Z,20.92
2017-04-02T11:25:29.586Z,20.85
2017-04-02T11:26:42.108Z,20.85
2017-04-02T11:27:54.402Z,20.66
2017-04-02T11:29:06.926Z,20.59
2017-04-02T11:30:18.854Z,20.55
2017-04-02T11:31:31.420Z,20.52
2017-04-02T11:32:43.966Z,20.44
2017-04-02T11:33:56.533Z,20.34
2017-04-02T11:35:09.088Z,20.33
2017-04-02T11:36:21.348Z,20.36
2017-04-02T11:37:33.592Z,20.44
2017-04-02T11:38:45.514Z,20.34
2017-04-02T11:39:58.045Z,20.4
2017-04-02T11:41:10.306Z,20.37
2017-04-02T11:42:22.858Z,20.33
2017-04-02T11:43:34.801Z,20.24
2017-04-02T11:44:47.050Z,20.4
2017-04-02T11:45:59.279Z,20.36
2017-04-02T11:47:11.520Z,20.11
2017-04-02T11:48:23.767Z,20.22
2017-04-02T11:49:36.009Z,20.22
2017-04-02T11:50:48.226Z,20.34
2017-04-02T11:52:00.769Z,20.39
2017-04-02T11:53:13.324Z,20.48
2017-04-02T11:54:25.564Z,20.52
2017-04-02T11:55:38.109Z,20.6
2017-04-02T11:56:50.326Z,20.73
2017-04-02T11:58:02.852Z,20.68
2017-04-02T11:59:15.372Z,20.82
2017-04-02T12:00:27.897Z,20.73
2017-04-02T12:01:40.447Z,20.66
2017-04-02T12:02:52.682Z,20.64
2017-04-02T12:04:05.235Z,20.56
2017-04-02T12:05:17.462Z,20.48
2017-04-02T12:06:29.696Z,20.24
2017-04-02T12:07:41.948Z,20.12
2017-04-02T12:08:54.475Z,20.1
2017-04-02T12:10:07.007Z,19.97
2017-04-02T12:11:19.539Z,19.92
2017-04-02T12:12:31.780Z,19.85
2017-04-02T12:13:44.049Z,19.72
2017-04-02T12:14:56.269Z,19.66
2017-04-02T12:16:08.838Z,19.62
2017-04-02T12:17:21.398Z,19.7
2017-04-02T12:18:33.937Z,19.7
2017-04-02T12:19:46.461Z,19.57
2017-04-02T12:20:59.003Z,19.67
2017-04-02T12:22:11.517Z,19.72
2017-04-02T12:23:24.077Z,19.64
2017-04-02T12:24:36.308Z,19.67
2017-04-02T12:25:48.839Z,19.66
2017-04-02T12:27:01.101Z,19.75
2017-04-02T12:28:13.020Z,19.75
2017-04-02T12:29:25.570Z,19.82
2017-04-02T12:30:38.400Z,19.82
2017-04-02T12:31:50.985Z,19.9
2017-04-02T12:33:03.518Z,19.97
2017-04-02T12:34:16.032Z,19.97
2017-04-02T12:35:28.254Z,20
2017-04-02T12:36:40.495Z,20.03
2017-04-02T12:37:52.713Z,20.02
2017-04-02T12:39:04.962Z,20
2017-04-02T12:40:17.555Z,20.11
2017-04-02T12:41:30.111Z,20.14
2017-04-02T12:42:42.675Z,20.15
2017-04-02T12:43:55.271Z,20.22
2017-04-02T12:45:07.523Z,20.14
2017-04-02T12:46:20.046Z,20.15
2017-04-02T12:47:32.592Z,20.17
2017-04-02T12:48:45.159Z,20.07
2017-04-02T12:49:57.726Z,20.14
2017-04-02T12:51:09.979Z,20.04
2017-04-02T12:52:22.526Z,19.94
2017-04-02T12:53:35.091Z,20
2017-04-02T12:54:47.031Z,19.99
2017-04-02T12:55:59.560Z,19.99
2017-04-02T12:57:12.106Z,19.99
2017-04-02T12:58:24.643Z,20.03
2017-04-02T12:59:36.875Z,20.08
2017-04-02T13:00:49.439Z,20.12
2017-04-02T13:02:01.989Z,20.08
2017-04-02T13:03:14.530Z,20.14
2017-04-02T13:04:27.058Z,20.1
2017-04-02T13:05:38.997Z,20.14
2017-04-02T13:06:51.275Z,20.24
2017-04-02T13:08:03.789Z,20.33
2017-04-02T13:09:16.334Z,20.3
2017-04-02T13:10:28.885Z,20.34
2017-04-02T13:11:41.431Z,20.32
2017-04-02T13:12:53.969Z,20.21
2017-04-02T13:14:06.515Z,20.27
2017-04-02T13:15:19.049Z,20.22
2017-04-02T13:16:31.657Z,20.12
2017-04-02T13:17:43.902Z,20.11
2017-04-02T13:18:56.460Z,20.12
2017-04-02T13:20:09.274Z,20.07
2017-04-02T13:21:21.818Z,20
2017-04-02T13:22:34.047Z,19.97
2017-04-02T13:23:46.286Z,19.9
2017-04-02T13:24:58.828Z,19.85
2017-04-02T13:26:11.099Z,19.78
2017-04-02T13:27:23.657Z,19.75
2017-04-02T13:28:35.280Z,19.79
2017-04-02T13:29:47.841Z,19.74
2017-04-02T13:31:00.391Z,19.74
2017-04-02T13:32:12.911Z,19.6
2017-04-02T13:33:25.136Z,19.6
2017-04-02T13:34:37.399Z,19.63
2017-04-02T13:35:49.945Z,19.6
2017-04-02T13:37:02.498Z,19.6
2017-04-02T13:38:15.044Z,19.59
2017-04-02T13:39:27.279Z,19.56
2017-04-02T13:40:39.835Z,19.56
2017-04-02T13:41:51.474Z,19.41
2017-04-02T13:43:04.017Z,19.55
2017-04-02T13:44:16.570Z,19.39
2017-04-02T13:45:28.870Z,19.45
2017-04-02T13:46:40.829Z,19.35
2017-04-02T13:47:53.060Z,19.42
2017-04-02T13:49:05.579Z,19.34
2017-04-02T13:50:17.819Z,19.27
2017-04-02T13:51:30.389Z,19.26
2017-04-02T13:52:42.934Z,19.27
2017-04-02T13:53:55.540Z,19.26
2017-04-02T13:55:08.084Z,19.15
2017-04-02T13:56:20.029Z,19.19
2017-04-02T13:57:32.871Z,19.17
2017-04-02T13:58:45.417Z,19.11
2017-04-02T13:59:57.922Z,19.11
2017-04-02T14:01:10.463Z,19.07
2017-04-02T14:02:22.662Z,19.08
2017-04-02T14:03:34.884Z,19.12
2017-04-02T14:04:47.147Z,19.11
2017-04-02T14:05:59.742Z,19.05
2017-04-02T14:07:12.268Z,19.07
2017-04-02T14:08:24.498Z,19.05
2017-04-02T14:09:37.051Z,19.05
2017-04-02T14:10:49.576Z,19
2017-04-02T14:12:01.778Z,18.96
2017-04-02T14:13:14.319Z,18.97
2017-04-02T14:14:26.861Z,18.96
2017-04-02T14:15:39.410Z,18.98
2017-04-02T14:16:51.956Z,18.94
2017-04-02T14:18:04.481Z,18.97
2017-04-02T14:19:17.022Z,18.96
2017-04-02T14:20:29.551Z,18.98
2017-04-02T14:21:41.769Z,18.92
2017-04-02T14:22:54.314Z,18.89
2017-04-02T14:24:06.839Z,18.94
2017-04-02T14:25:19.385Z,19.05
2017-04-02T14:26:31.634Z,18.96
2017-04-02T14:27:43.869Z,19.01
2017-04-02T14:28:56.422Z,19.07
2017-04-02T14:30:08.683Z,18.98
2017-04-02T14:31:21.235Z,19.01
2017-04-02T14:32:33.474Z,19
2017-04-02T14:33:46.006Z,19.11
2017-04-02T14:34:58.225Z,19.04
2017-04-02T14:36:10.449Z,19.04
2017-04-02T14:37:22.991Z,18.97
2017-04-02T14:38:35.507Z,18.96
2017-04-02T14:39:47.750Z,18.89
2017-04-02T14:41:00.530Z,18.81
2017-04-02T14:42:13.049Z,18.88
2017-04-02T14:43:25.574Z,18.71
2017-04-02T14:44:38.091Z,18.64
2017-04-02T14:45:50.334Z,18.66
2017-04-02T14:47:02.851Z,18.61
2017-04-02T14:48:15.382Z,18.49
2017-04-02T14:49:27.646Z,18.52
2017-04-02T14:50:40.199Z,18.39
2017-04-02T14:51:52.770Z,18.46
2017-04-02T14:53:04.687Z,18.37
2017-04-02T14:54:17.239Z,18.43
2017-04-02T14:55:29.474Z,18.37
2017-04-02T14:56:41.718Z,18.39
2017-04-02T14:57:54.252Z,18.41
2017-04-02T14:59:06.794Z,18.42
2017-04-02T15:00:19.305Z,18.36
2017-04-02T15:01:31.563Z,18.37
2017-04-02T15:02:43.805Z,18.28
2017-04-02T15:03:56.332Z,18.39
2017-04-02T15:05:08.842Z,18.31
2017-04-02T15:06:21.396Z,18.33
2017-04-02T15:07:33.942Z,18.28
2017-04-02T15:08:46.464Z,18.33
2017-04-02T15:09:59.022Z,18.34
2017-04-02T15:11:11.296Z,18.37
2017-04-02T15:12:23.854Z,18.21
2017-04-02T15:13:36.414Z,18.27
2017-04-02T15:14:48.984Z,18.16
2017-04-02T15:16:01.239Z,18.16
2017-04-02T15:17:13.482Z,18.13
2017-04-02T15:18:25.727Z,18.13
2017-04-02T15:19:38.275Z,18.05
2017-04-02T15:20:50.536Z,18.05
2017-04-02T15:22:03.068Z,18.03
2017-04-02T15:23:15.027Z,17.98
2017-04-02T15:24:27.784Z,18.03
2017-04-02T15:25:40.029Z,17.91
2017-04-02T15:26:52.544Z,17.88
2017-04-02T15:28:05.090Z,17.88
2017-04-02T15:29:17.335Z,17.95
2017-04-02T15:30:29.865Z,17.9
2017-04-02T15:31:42.423Z,17.88
2017-04-02T15:32:54.654Z,17.87
2017-04-02T15:34:07.191Z,17.87
2017-04-02T15:35:19.737Z,17.84
2017-04-02T15:36:31.687Z,17.82
2017-04-02T15:37:43.954Z,17.84
2017-04-02T15:38:56.474Z,17.8
2017-04-02T15:40:08.725Z,17.87